sensor_id;sensor_type;location;lat;lon;timestamp;P1;durP1;ratioP1;P2;durP2;ratioP2
2548;SDS011;1284;53.520;10.248;2023-07-22T00:02:21;1.20;;;1.05;;
2548;SDS011;1284;53.520;10.248;2023-07-22T00:04:48;1.25;;;0.70;;
2548;SDS011;1284;53.520;10.248;2023-07-22T00:07:14;1.48;;;0.80;;
2548;SDS011;1284;53.520;10.248;2023-07-22T00:09:39;1.83;;;0.98;;
2548;SDS011;1284;53.520;10.248;2023-07-22T00:12:06;1.70;;;0.75;;
2548;SDS011;1284;53.520;10.248;2023-07-22T00:14:33;1.05;;;0.82;;
2548;SDS011;1284;53.520;10.248;2023-07-22T00:16:58;1.23;;;0.82;;
2548;SDS011;1284;53.520;10.248;2023-07-22T00:19:24;0.88;;;0.80;;
2548;SDS011;1284;53.520;10.248;2023-07-22T00:21:49;0.88;;;0.70;;
2548;SDS011;1284;53.520;10.248;2023-07-22T00:24:17;1.33;;;0.93;;
2548;SDS011;1284;53.520;10.248;2023-07-22T00:26:42;1.00;;;0.85;;
2548;SDS011;1284;53.520;10.248;2023-07-22T00:29:08;1.63;;;0.85;;
2548;SDS011;1284;53.520;10.248;2023-07-22T00:31:34;1.02;;;0.80;;
2548;SDS011;1284;53.520;10.248;2023-07-22T00:33:59;1.27;;;0.82;;
2548;SDS011;1284;53.520;10.248;2023-07-22T00:36:25;1.58;;;1.20;;
2548;SDS011;1284;53.520;10.248;2023-07-22T00:38:50;1.75;;;0.88;;
2548;SDS011;1284;53.520;10.248;2023-07-22T00:41:18;1.20;;;0.95;;
2548;SDS011;1284;53.520;10.248;2023-07-22T00:43:44;2.42;;;1.00;;
2548;SDS011;1284;53.520;10.248;2023-07-22T00:46:09;1.73;;;0.90;;
2548;SDS011;1284;53.520;10.248;2023-07-22T00:48:35;1.20;;;0.98;;
2548;SDS011;1284;53.520;10.248;2023-07-22T00:51:00;2.97;;;1.20;;
2548;SDS011;1284;53.520;10.248;2023-07-22T00:53:26;1.73;;;0.98;;
2548;SDS011;1284;53.520;10.248;2023-07-22T00:55:51;1.27;;;0.90;;
2548;SDS011;1284;53.520;10.248;2023-07-22T00:58:17;2.03;;;0.82;;
2548;SDS011;1284;53.520;10.248;2023-07-22T01:00:42;1.95;;;1.10;;
2548;SDS011;1284;53.520;10.248;2023-07-22T01:03:08;1.13;;;0.80;;
2548;SDS011;1284;53.520;10.248;2023-07-22T01:05:33;1.83;;;1.13;;
2548;SDS011;1284;53.520;10.248;2023-07-22T01:08:03;1.63;;;0.98;;
2548;SDS011;1284;53.520;10.248;2023-07-22T01:10:29;4.45;;;1.50;;
2548;SDS011;1284;53.520;10.248;2023-07-22T01:12:55;1.73;;;1.20;;
2548;SDS011;1284;53.520;10.248;2023-07-22T01:15:20;1.75;;;1.10;;
2548;SDS011;1284;53.520;10.248;2023-07-22T01:17:47;2.55;;;1.38;;
2548;SDS011;1284;53.520;10.248;2023-07-22T01:20:14;2.22;;;1.20;;
2548;SDS011;1284;53.520;10.248;2023-07-22T01:22:41;2.67;;;1.70;;
2548;SDS011;1284;53.520;10.248;2023-07-22T01:25:28;1.58;;;1.25;;
2548;SDS011;1284;53.520;10.248;2023-07-22T01:27:54;3.42;;;1.88;;
2548;SDS011;1284;53.520;10.248;2023-07-22T01:30:20;3.20;;;1.23;;
2548;SDS011;1284;53.520;10.248;2023-07-22T01:33:06;1.55;;;1.23;;
2548;SDS011;1284;53.520;10.248;2023-07-22T01:35:34;2.17;;;1.10;;
2548;SDS011;1284;53.520;10.248;2023-07-22T01:37:59;2.72;;;1.48;;
2548;SDS011;1284;53.520;10.248;2023-07-22T01:40:25;2.03;;;1.25;;
2548;SDS011;1284;53.520;10.248;2023-07-22T01:42:51;1.30;;;1.00;;
2548;SDS011;1284;53.520;10.248;2023-07-22T01:45:16;3.42;;;1.13;;
2548;SDS011;1284;53.520;10.248;2023-07-22T01:47:42;1.85;;;1.00;;
2548;SDS011;1284;53.520;10.248;2023-07-22T01:50:07;1.33;;;1.02;;
2548;SDS011;1284;53.520;10.248;2023-07-22T01:52:34;2.63;;;1.20;;
2548;SDS011;1284;53.520;10.248;2023-07-22T01:54:59;3.78;;;1.40;;
2548;SDS011;1284;53.520;10.248;2023-07-22T01:57:25;2.75;;;0.95;;
2548;SDS011;1284;53.520;10.248;2023-07-22T01:59:50;6.28;;;1.55;;
2548;SDS011;1284;53.520;10.248;2023-07-22T02:02:16;2.28;;;1.10;;
2548;SDS011;1284;53.520;10.248;2023-07-22T02:04:41;2.83;;;1.55;;
2548;SDS011;1284;53.520;10.248;2023-07-22T02:07:07;3.38;;;0.95;;
2548;SDS011;1284;53.520;10.248;2023-07-22T02:09:32;5.07;;;1.30;;
2548;SDS011;1284;53.520;10.248;2023-07-22T02:11:58;4.22;;;1.13;;
2548;SDS011;1284;53.520;10.248;2023-07-22T02:14:24;2.30;;;1.23;;
2548;SDS011;1284;53.520;10.248;2023-07-22T02:16:50;1.23;;;0.80;;
2548;SDS011;1284;53.520;10.248;2023-07-22T02:19:16;2.88;;;1.50;;
2548;SDS011;1284;53.520;10.248;2023-07-22T02:21:41;2.33;;;1.30;;
2548;SDS011;1284;53.520;10.248;2023-07-22T02:24:07;2.20;;;1.50;;
2548;SDS011;1284;53.520;10.248;2023-07-22T02:26:33;6.30;;;1.10;;
2548;SDS011;1284;53.520;10.248;2023-07-22T02:28:59;5.95;;;1.30;;
2548;SDS011;1284;53.520;10.248;2023-07-22T02:31:24;3.53;;;1.25;;
2548;SDS011;1284;53.520;10.248;2023-07-22T02:33:50;2.42;;;1.25;;
2548;SDS011;1284;53.520;10.248;2023-07-22T02:36:16;4.13;;;1.20;;
2548;SDS011;1284;53.520;10.248;2023-07-22T02:38:41;4.38;;;1.67;;
2548;SDS011;1284;53.520;10.248;2023-07-22T02:41:07;1.65;;;1.35;;
2548;SDS011;1284;53.520;10.248;2023-07-22T02:43:36;1.90;;;0.82;;
2548;SDS011;1284;53.520;10.248;2023-07-22T02:46:02;1.95;;;1.35;;
2548;SDS011;1284;53.520;10.248;2023-07-22T02:48:29;2.50;;;1.25;;
2548;SDS011;1284;53.520;10.248;2023-07-22T02:51:01;1.92;;;1.13;;
2548;SDS011;1284;53.520;10.248;2023-07-22T02:53:31;2.13;;;1.23;;
2548;SDS011;1284;53.520;10.248;2023-07-22T02:55:57;2.75;;;1.73;;
2548;SDS011;1284;53.520;10.248;2023-07-22T02:58:24;2.78;;;1.25;;
2548;SDS011;1284;53.520;10.248;2023-07-22T03:01:10;1.30;;;0.90;;
2548;SDS011;1284;53.520;10.248;2023-07-22T03:03:35;1.55;;;1.23;;
2548;SDS011;1284;53.520;10.248;2023-07-22T03:06:05;2.35;;;0.93;;
2548;SDS011;1284;53.520;10.248;2023-07-22T03:08:30;3.38;;;1.27;;
2548;SDS011;1284;53.520;10.248;2023-07-22T03:10:56;5.75;;;1.33;;
2548;SDS011;1284;53.520;10.248;2023-07-22T03:13:22;5.13;;;1.50;;
2548;SDS011;1284;53.520;10.248;2023-07-22T03:15:47;3.22;;;1.33;;
2548;SDS011;1284;53.520;10.248;2023-07-22T03:18:13;4.20;;;1.50;;
2548;SDS011;1284;53.520;10.248;2023-07-22T03:20:38;4.78;;;1.70;;
2548;SDS011;1284;53.520;10.248;2023-07-22T03:23:24;2.53;;;1.17;;
2548;SDS011;1284;53.520;10.248;2023-07-22T03:25:49;3.80;;;1.60;;
2548;SDS011;1284;53.520;10.248;2023-07-22T03:28:15;8.48;;;1.80;;
2548;SDS011;1284;53.520;10.248;2023-07-22T03:30:41;4.07;;;1.67;;
2548;SDS011;1284;53.520;10.248;2023-07-22T03:33:07;1.70;;;1.10;;
2548;SDS011;1284;53.520;10.248;2023-07-22T03:35:33;2.65;;;1.38;;
2548;SDS011;1284;53.520;10.248;2023-07-22T03:37:59;2.65;;;1.42;;
2548;SDS011;1284;53.520;10.248;2023-07-22T03:40:24;2.67;;;1.23;;
2548;SDS011;1284;53.520;10.248;2023-07-22T03:42:55;1.48;;;1.00;;
2548;SDS011;1284;53.520;10.248;2023-07-22T03:45:22;3.58;;;1.17;;
2548;SDS011;1284;53.520;10.248;2023-07-22T03:47:52;3.53;;;1.48;;
2548;SDS011;1284;53.520;10.248;2023-07-22T03:50:22;1.88;;;1.40;;
2548;SDS011;1284;53.520;10.248;2023-07-22T03:52:48;3.05;;;1.30;;
2548;SDS011;1284;53.520;10.248;2023-07-22T03:55:14;4.03;;;1.27;;
2548;SDS011;1284;53.520;10.248;2023-07-22T03:57:39;2.05;;;1.40;;
2548;SDS011;1284;53.520;10.248;2023-07-22T04:00:05;2.85;;;1.58;;
2548;SDS011;1284;53.520;10.248;2023-07-22T04:02:40;2.58;;;1.50;;
2548;SDS011;1284;53.520;10.248;2023-07-22T04:05:06;5.35;;;1.45;;
2548;SDS011;1284;53.520;10.248;2023-07-22T04:07:31;6.75;;;1.13;;
2548;SDS011;1284;53.520;10.248;2023-07-22T04:09:57;2.65;;;1.48;;
2548;SDS011;1284;53.520;10.248;2023-07-22T04:12:22;2.35;;;1.15;;
2548;SDS011;1284;53.520;10.248;2023-07-22T04:14:48;1.77;;;1.33;;
2548;SDS011;1284;53.520;10.248;2023-07-22T04:17:13;2.08;;;1.20;;
2548;SDS011;1284;53.520;10.248;2023-07-22T04:19:40;5.68;;;1.92;;
2548;SDS011;1284;53.520;10.248;2023-07-22T04:22:06;1.73;;;1.30;;
2548;SDS011;1284;53.520;10.248;2023-07-22T04:24:31;2.00;;;0.90;;
2548;SDS011;1284;53.520;10.248;2023-07-22T04:26:58;1.48;;;1.00;;
2548;SDS011;1284;53.520;10.248;2023-07-22T04:29:25;2.53;;;1.23;;
2548;SDS011;1284;53.520;10.248;2023-07-22T04:31:50;2.00;;;1.10;;
2548;SDS011;1284;53.520;10.248;2023-07-22T04:34:16;2.28;;;1.20;;
2548;SDS011;1284;53.520;10.248;2023-07-22T04:36:41;3.60;;;1.10;;
2548;SDS011;1284;53.520;10.248;2023-07-22T04:39:08;2.75;;;1.23;;
2548;SDS011;1284;53.520;10.248;2023-07-22T04:41:33;1.80;;;1.05;;
2548;SDS011;1284;53.520;10.248;2023-07-22T04:43:59;2.53;;;1.30;;
2548;SDS011;1284;53.520;10.248;2023-07-22T04:46:25;2.50;;;1.13;;
2548;SDS011;1284;53.520;10.248;2023-07-22T04:48:53;3.08;;;1.65;;
2548;SDS011;1284;53.520;10.248;2023-07-22T04:51:19;3.42;;;1.58;;
2548;SDS011;1284;53.520;10.248;2023-07-22T04:53:45;5.88;;;1.70;;
2548;SDS011;1284;53.520;10.248;2023-07-22T04:56:10;2.20;;;1.42;;
2548;SDS011;1284;53.520;10.248;2023-07-22T04:58:35;4.00;;;1.58;;
2548;SDS011;1284;53.520;10.248;2023-07-22T05:01:01;2.25;;;1.00;;
2548;SDS011;1284;53.520;10.248;2023-07-22T05:03:26;1.83;;;1.52;;
2548;SDS011;1284;53.520;10.248;2023-07-22T05:05:52;1.98;;;1.15;;
2548;SDS011;1284;53.520;10.248;2023-07-22T05:08:18;3.00;;;1.42;;
2548;SDS011;1284;53.520;10.248;2023-07-22T05:10:43;5.40;;;1.38;;
2548;SDS011;1284;53.520;10.248;2023-07-22T05:13:09;2.65;;;1.30;;
2548;SDS011;1284;53.520;10.248;2023-07-22T05:15:34;2.35;;;1.27;;
2548;SDS011;1284;53.520;10.248;2023-07-22T05:18:00;2.28;;;1.30;;
2548;SDS011;1284;53.520;10.248;2023-07-22T05:20:25;3.50;;;1.27;;
2548;SDS011;1284;53.520;10.248;2023-07-22T05:22:51;3.55;;;1.42;;
2548;SDS011;1284;53.520;10.248;2023-07-22T05:25:17;4.03;;;1.63;;
2548;SDS011;1284;53.520;10.248;2023-07-22T05:27:42;3.85;;;1.95;;
2548;SDS011;1284;53.520;10.248;2023-07-22T05:30:08;1.58;;;1.23;;
2548;SDS011;1284;53.520;10.248;2023-07-22T05:32:34;2.20;;;1.25;;
2548;SDS011;1284;53.520;10.248;2023-07-22T05:34:59;1.80;;;1.30;;
2548;SDS011;1284;53.520;10.248;2023-07-22T05:37:26;3.53;;;1.55;;
2548;SDS011;1284;53.520;10.248;2023-07-22T05:39:51;2.55;;;1.30;;
2548;SDS011;1284;53.520;10.248;2023-07-22T05:42:17;4.82;;;1.92;;
2548;SDS011;1284;53.520;10.248;2023-07-22T05:44:43;3.78;;;1.27;;
2548;SDS011;1284;53.520;10.248;2023-07-22T05:47:09;3.05;;;1.30;;
2548;SDS011;1284;53.520;10.248;2023-07-22T05:49:34;1.67;;;1.10;;
2548;SDS011;1284;53.520;10.248;2023-07-22T05:51:59;5.70;;;1.13;;
2548;SDS011;1284;53.520;10.248;2023-07-22T05:54:25;2.45;;;1.23;;
2548;SDS011;1284;53.520;10.248;2023-07-22T05:56:50;2.75;;;1.17;;
2548;SDS011;1284;53.520;10.248;2023-07-22T05:59:17;2.50;;;1.58;;
2548;SDS011;1284;53.520;10.248;2023-07-22T06:01:42;2.72;;;1.13;;
2548;SDS011;1284;53.520;10.248;2023-07-22T06:04:08;3.92;;;1.60;;
2548;SDS011;1284;53.520;10.248;2023-07-22T06:06:33;3.20;;;1.30;;
2548;SDS011;1284;53.520;10.248;2023-07-22T06:08:59;4.28;;;1.40;;
2548;SDS011;1284;53.520;10.248;2023-07-22T06:11:24;4.40;;;1.80;;
2548;SDS011;1284;53.520;10.248;2023-07-22T06:13:50;3.28;;;1.58;;
2548;SDS011;1284;53.520;10.248;2023-07-22T06:16:16;2.05;;;1.30;;
2548;SDS011;1284;53.520;10.248;2023-07-22T06:18:41;2.28;;;0.98;;
2548;SDS011;1284;53.520;10.248;2023-07-22T06:21:06;2.42;;;0.90;;
2548;SDS011;1284;53.520;10.248;2023-07-22T06:23:32;2.45;;;0.95;;
2548;SDS011;1284;53.520;10.248;2023-07-22T06:25:57;2.15;;;1.10;;
2548;SDS011;1284;53.520;10.248;2023-07-22T06:28:23;2.65;;;0.85;;
2548;SDS011;1284;53.520;10.248;2023-07-22T06:30:48;2.53;;;0.95;;
2548;SDS011;1284;53.520;10.248;2023-07-22T06:33:13;2.58;;;1.23;;
2548;SDS011;1284;53.520;10.248;2023-07-22T06:35:39;2.83;;;1.10;;
2548;SDS011;1284;53.520;10.248;2023-07-22T06:38:04;2.45;;;1.23;;
2548;SDS011;1284;53.520;10.248;2023-07-22T06:40:30;3.83;;;0.90;;
2548;SDS011;1284;53.520;10.248;2023-07-22T06:42:55;2.13;;;0.70;;
2548;SDS011;1284;53.520;10.248;2023-07-22T06:45:21;1.67;;;0.90;;
2548;SDS011;1284;53.520;10.248;2023-07-22T06:47:46;0.93;;;0.63;;
2548;SDS011;1284;53.520;10.248;2023-07-22T06:50:12;1.27;;;0.63;;
2548;SDS011;1284;53.520;10.248;2023-07-22T06:52:37;2.47;;;0.98;;
2548;SDS011;1284;53.520;10.248;2023-07-22T06:55:03;1.83;;;0.90;;
2548;SDS011;1284;53.520;10.248;2023-07-22T06:57:29;0.88;;;0.65;;
2548;SDS011;1284;53.520;10.248;2023-07-22T06:59:54;1.10;;;0.55;;
2548;SDS011;1284;53.520;10.248;2023-07-22T07:02:20;1.15;;;0.45;;
2548;SDS011;1284;53.520;10.248;2023-07-22T07:04:46;1.25;;;0.68;;
2548;SDS011;1284;53.520;10.248;2023-07-22T07:07:12;0.82;;;0.50;;
2548;SDS011;1284;53.520;10.248;2023-07-22T07:09:38;0.63;;;0.50;;
2548;SDS011;1284;53.520;10.248;2023-07-22T07:12:04;0.80;;;0.68;;
2548;SDS011;1284;53.520;10.248;2023-07-22T07:14:33;0.68;;;0.50;;
2548;SDS011;1284;53.520;10.248;2023-07-22T07:16:59;0.65;;;0.50;;
2548;SDS011;1284;53.520;10.248;2023-07-22T07:19:25;1.42;;;0.57;;
2548;SDS011;1284;53.520;10.248;2023-07-22T07:21:51;1.75;;;0.80;;
2548;SDS011;1284;53.520;10.248;2023-07-22T07:24:17;1.33;;;0.52;;
2548;SDS011;1284;53.520;10.248;2023-07-22T07:26:43;1.25;;;0.60;;
2548;SDS011;1284;53.520;10.248;2023-07-22T07:29:08;0.68;;;0.47;;
2548;SDS011;1284;53.520;10.248;2023-07-22T07:31:33;1.05;;;0.45;;
2548;SDS011;1284;53.520;10.248;2023-07-22T07:33:59;0.60;;;0.30;;
2548;SDS011;1284;53.520;10.248;2023-07-22T07:36:25;0.68;;;0.60;;
2548;SDS011;1284;53.520;10.248;2023-07-22T07:38:50;0.73;;;0.40;;
2548;SDS011;1284;53.520;10.248;2023-07-22T07:41:15;2.15;;;0.43;;
2548;SDS011;1284;53.520;10.248;2023-07-22T07:43:41;0.98;;;0.38;;
2548;SDS011;1284;53.520;10.248;2023-07-22T07:46:49;0.93;;;0.40;;
2548;SDS011;1284;53.520;10.248;2023-07-22T07:48:56;0.93;;;0.50;;
2548;SDS011;1284;53.520;10.248;2023-07-22T07:51:26;1.13;;;0.80;;
2548;SDS011;1284;53.520;10.248;2023-07-22T07:53:52;0.90;;;0.40;;
2548;SDS011;1284;53.520;10.248;2023-07-22T07:56:18;0.75;;;0.30;;
2548;SDS011;1284;53.520;10.248;2023-07-22T07:58:48;2.38;;;0.80;;
2548;SDS011;1284;53.520;10.248;2023-07-22T08:01:14;1.08;;;0.65;;
2548;SDS011;1284;53.520;10.248;2023-07-22T08:03:40;3.15;;;0.80;;
2548;SDS011;1284;53.520;10.248;2023-07-22T08:06:07;1.23;;;0.80;;
2548;SDS011;1284;53.520;10.248;2023-07-22T08:08:33;2.72;;;1.10;;
2548;SDS011;1284;53.520;10.248;2023-07-22T08:11:03;1.10;;;0.80;;
2548;SDS011;1284;53.520;10.248;2023-07-22T08:13:37;0.77;;;0.35;;
2548;SDS011;1284;53.520;10.248;2023-07-22T08:16:03;2.72;;;0.50;;
2548;SDS011;1284;53.520;10.248;2023-07-22T08:18:30;0.80;;;0.60;;
2548;SDS011;1284;53.520;10.248;2023-07-22T08:20:56;1.13;;;0.60;;
2548;SDS011;1284;53.520;10.248;2023-07-22T08:23:22;1.30;;;0.32;;
2548;SDS011;1284;53.520;10.248;2023-07-22T08:25:48;1.10;;;0.50;;
2548;SDS011;1284;53.520;10.248;2023-07-22T08:28:14;1.25;;;0.80;;
2548;SDS011;1284;53.520;10.248;2023-07-22T08:30:40;3.70;;;0.80;;
2548;SDS011;1284;53.520;10.248;2023-07-22T08:33:12;0.98;;;0.47;;
2548;SDS011;1284;53.520;10.248;2023-07-22T08:35:39;1.95;;;0.75;;
2548;SDS011;1284;53.520;10.248;2023-07-22T08:38:05;1.73;;;0.80;;
2548;SDS011;1284;53.520;10.248;2023-07-22T08:40:36;0.70;;;0.30;;
2548;SDS011;1284;53.520;10.248;2023-07-22T08:43:05;0.50;;;0.30;;
2548;SDS011;1284;53.520;10.248;2023-07-22T08:45:32;0.40;;;0.40;;
2548;SDS011;1284;53.520;10.248;2023-07-22T08:48:05;0.82;;;0.45;;
2548;SDS011;1284;53.520;10.248;2023-07-22T08:50:44;0.50;;;0.40;;
2548;SDS011;1284;53.520;10.248;2023-07-22T08:53:14;0.73;;;0.60;;
2548;SDS011;1284;53.520;10.248;2023-07-22T08:55:44;0.60;;;0.43;;
2548;SDS011;1284;53.520;10.248;2023-07-22T08:58:10;1.23;;;0.60;;
2548;SDS011;1284;53.520;10.248;2023-07-22T09:00:37;0.55;;;0.32;;
2548;SDS011;1284;53.520;10.248;2023-07-22T09:03:04;0.77;;;0.50;;
2548;SDS011;1284;53.520;10.248;2023-07-22T09:05:33;1.85;;;0.40;;
2548;SDS011;1284;53.520;10.248;2023-07-22T09:08:01;0.50;;;0.30;;
2548;SDS011;1284;53.520;10.248;2023-07-22T09:10:28;1.83;;;0.45;;
2548;SDS011;1284;53.520;10.248;2023-07-22T09:12:54;0.30;;;0.10;;
2548;SDS011;1284;53.520;10.248;2023-07-22T09:15:20;0.65;;;0.40;;
2548;SDS011;1284;53.520;10.248;2023-07-22T09:17:46;0.22;;;0.10;;
2548;SDS011;1284;53.520;10.248;2023-07-22T09:20:12;0.13;;;0.13;;
2548;SDS011;1284;53.520;10.248;2023-07-22T09:22:43;0.10;;;0.10;;
2548;SDS011;1284;53.520;10.248;2023-07-22T09:25:12;0.20;;;0.20;;
2548;SDS011;1284;53.520;10.248;2023-07-22T09:27:47;0.10;;;0.10;;
2548;SDS011;1284;53.520;10.248;2023-07-22T09:30:35;1.23;;;0.43;;
2548;SDS011;1284;53.520;10.248;2023-07-22T09:33:03;1.38;;;0.40;;
2548;SDS011;1284;53.520;10.248;2023-07-22T09:35:45;0.60;;;0.20;;
2548;SDS011;1284;53.520;10.248;2023-07-22T09:38:13;0.38;;;0.22;;
2548;SDS011;1284;53.520;10.248;2023-07-22T09:40:41;0.43;;;0.20;;
2548;SDS011;1284;53.520;10.248;2023-07-22T09:43:08;0.35;;;0.22;;
2548;SDS011;1284;53.520;10.248;2023-07-22T09:45:35;0.47;;;0.30;;
2548;SDS011;1284;53.520;10.248;2023-07-22T09:48:03;0.20;;;0.20;;
2548;SDS011;1284;53.520;10.248;2023-07-22T09:50:29;0.30;;;0.10;;
2548;SDS011;1284;53.520;10.248;2023-07-22T09:52:55;1.02;;;0.55;;
2548;SDS011;1284;53.520;10.248;2023-07-22T09:55:28;0.25;;;0.25;;
2548;SDS011;1284;53.520;10.248;2023-07-22T09:57:57;0.40;;;0.30;;
2548;SDS011;1284;53.520;10.248;2023-07-22T10:00:30;1.58;;;0.32;;
2548;SDS011;1284;53.520;10.248;2023-07-22T10:02:58;0.45;;;0.32;;
2548;SDS011;1284;53.520;10.248;2023-07-22T10:05:25;0.50;;;0.35;;
2548;SDS011;1284;53.520;10.248;2023-07-22T10:07:52;1.20;;;0.60;;
2548;SDS011;1284;53.520;10.248;2023-07-22T10:10:22;0.43;;;0.30;;
2548;SDS011;1284;53.520;10.248;2023-07-22T10:12:50;0.10;;;0.10;;
2548;SDS011;1284;53.520;10.248;2023-07-22T10:15:16;0.65;;;0.50;;
2548;SDS011;1284;53.520;10.248;2023-07-22T10:17:45;0.40;;;0.20;;
2548;SDS011;1284;53.520;10.248;2023-07-22T10:20:11;0.40;;;0.30;;
2548;SDS011;1284;53.520;10.248;2023-07-22T10:22:44;1.08;;;0.43;;
2548;SDS011;1284;53.520;10.248;2023-07-22T10:25:11;0.98;;;0.30;;
2548;SDS011;1284;53.520;10.248;2023-07-22T10:27:38;0.40;;;0.40;;
2548;SDS011;1284;53.520;10.248;2023-07-22T10:30:05;1.65;;;0.30;;
2548;SDS011;1284;53.520;10.248;2023-07-22T10:32:32;0.32;;;0.30;;
2548;SDS011;1284;53.520;10.248;2023-07-22T10:35:00;1.17;;;0.50;;
2548;SDS011;1284;53.520;10.248;2023-07-22T10:37:32;1.08;;;0.82;;
2548;SDS011;1284;53.520;10.248;2023-07-22T10:40:01;0.40;;;0.40;;
2548;SDS011;1284;53.520;10.248;2023-07-22T10:43:20;0.35;;;0.20;;
2548;SDS011;1284;53.520;10.248;2023-07-22T10:45:40;0.80;;;0.30;;
2548;SDS011;1284;53.520;10.248;2023-07-22T10:48:11;0.47;;;0.20;;
2548;SDS011;1284;53.520;10.248;2023-07-22T10:50:42;0.28;;;0.28;;
2548;SDS011;1284;53.520;10.248;2023-07-22T10:56:02;0.32;;;0.20;;
2548;SDS011;1284;53.520;10.248;2023-07-22T11:11:52;0.52;;;0.20;;
2548;SDS011;1284;53.520;10.248;2023-07-22T11:14:22;0.52;;;0.28;;
2548;SDS011;1284;53.520;10.248;2023-07-22T11:16:49;1.25;;;0.40;;
2548;SDS011;1284;53.520;10.248;2023-07-22T11:19:16;0.43;;;0.28;;
2548;SDS011;1284;53.520;10.248;2023-07-22T11:21:46;0.15;;;0.15;;
2548;SDS011;1284;53.520;10.248;2023-07-22T11:24:13;0.95;;;0.47;;
2548;SDS011;1284;53.520;10.248;2023-07-22T11:26:39;0.80;;;0.38;;
2548;SDS011;1284;53.520;10.248;2023-07-22T11:29:06;0.68;;;0.40;;
2548;SDS011;1284;53.520;10.248;2023-07-22T11:31:33;0.50;;;0.47;;
2548;SDS011;1284;53.520;10.248;2023-07-22T11:34:02;0.55;;;0.40;;
2548;SDS011;1284;53.520;10.248;2023-07-22T11:36:28;0.25;;;0.17;;
2548;SDS011;1284;53.520;10.248;2023-07-22T11:38:53;0.63;;;0.55;;
2548;SDS011;1284;53.520;10.248;2023-07-22T11:41:22;0.45;;;0.22;;
2548;SDS011;1284;53.520;10.248;2023-07-22T11:43:49;0.40;;;0.15;;
2548;SDS011;1284;53.520;10.248;2023-07-22T11:46:15;0.57;;;0.52;;
2548;SDS011;1284;53.520;10.248;2023-07-22T11:48:48;0.95;;;0.50;;
2548;SDS011;1284;53.520;10.248;2023-07-22T11:51:15;1.20;;;0.40;;
2548;SDS011;1284;53.520;10.248;2023-07-22T11:53:42;0.90;;;0.50;;
2548;SDS011;1284;53.520;10.248;2023-07-22T11:56:10;0.40;;;0.30;;
2548;SDS011;1284;53.520;10.248;2023-07-22T11:58:36;0.85;;;0.60;;
2548;SDS011;1284;53.520;10.248;2023-07-22T12:01:02;1.17;;;0.50;;
2548;SDS011;1284;53.520;10.248;2023-07-22T12:03:32;0.90;;;0.60;;
2548;SDS011;1284;53.520;10.248;2023-07-22T12:06:02;3.03;;;0.60;;
2548;SDS011;1284;53.520;10.248;2023-07-22T12:08:28;0.88;;;0.45;;
2548;SDS011;1284;53.520;10.248;2023-07-22T12:10:57;1.20;;;0.73;;
2548;SDS011;1284;53.520;10.248;2023-07-22T12:13:23;1.10;;;0.70;;
2548;SDS011;1284;53.520;10.248;2023-07-22T12:16:02;1.42;;;0.80;;
2548;SDS011;1284;53.520;10.248;2023-07-22T12:18:45;1.13;;;0.73;;
2548;SDS011;1284;53.520;10.248;2023-07-22T12:21:12;1.65;;;0.57;;
2548;SDS011;1284;53.520;10.248;2023-07-22T12:23:39;1.50;;;0.95;;
2548;SDS011;1284;53.520;10.248;2023-07-22T12:26:06;1.00;;;0.90;;
2548;SDS011;1284;53.520;10.248;2023-07-22T12:28:31;1.02;;;0.52;;
2548;SDS011;1284;53.520;10.248;2023-07-22T12:30:57;1.30;;;0.70;;
2548;SDS011;1284;53.520;10.248;2023-07-22T12:33:23;1.88;;;1.00;;
2548;SDS011;1284;53.520;10.248;2023-07-22T12:35:50;1.30;;;0.82;;
2548;SDS011;1284;53.520;10.248;2023-07-22T12:38:16;3.10;;;0.65;;
2548;SDS011;1284;53.520;10.248;2023-07-22T12:40:42;0.77;;;0.47;;
2548;SDS011;1284;53.520;10.248;2023-07-22T12:43:07;1.95;;;0.70;;
2548;SDS011;1284;53.520;10.248;2023-07-22T12:45:33;2.55;;;0.70;;
2548;SDS011;1284;53.520;10.248;2023-07-22T12:48:02;1.90;;;0.70;;
2548;SDS011;1284;53.520;10.248;2023-07-22T12:50:31;1.70;;;0.60;;
2548;SDS011;1284;53.520;10.248;2023-07-22T12:52:57;0.95;;;0.60;;
2548;SDS011;1284;53.520;10.248;2023-07-22T12:55:27;0.80;;;0.55;;
2548;SDS011;1284;53.520;10.248;2023-07-22T12:57:52;1.63;;;0.90;;
2548;SDS011;1284;53.520;10.248;2023-07-22T13:00:18;1.70;;;0.95;;
2548;SDS011;1284;53.520;10.248;2023-07-22T13:02:43;1.25;;;0.93;;
2548;SDS011;1284;53.520;10.248;2023-07-22T13:05:09;3.13;;;1.00;;
2548;SDS011;1284;53.520;10.248;2023-07-22T13:07:34;2.45;;;0.85;;
2548;SDS011;1284;53.520;10.248;2023-07-22T13:10:00;1.58;;;0.73;;
2548;SDS011;1284;53.520;10.248;2023-07-22T13:12:30;2.00;;;0.80;;
2548;SDS011;1284;53.520;10.248;2023-07-22T13:14:56;1.80;;;1.00;;
2548;SDS011;1284;53.520;10.248;2023-07-22T13:17:21;1.30;;;0.90;;
2548;SDS011;1284;53.520;10.248;2023-07-22T13:19:47;1.38;;;0.95;;
2548;SDS011;1284;53.520;10.248;2023-07-22T13:22:12;1.23;;;0.90;;
2548;SDS011;1284;53.520;10.248;2023-07-22T13:24:38;2.45;;;0.95;;
2548;SDS011;1284;53.520;10.248;2023-07-22T13:27:03;1.30;;;0.80;;
2548;SDS011;1284;53.520;10.248;2023-07-22T13:29:29;1.23;;;0.63;;
2548;SDS011;1284;53.520;10.248;2023-07-22T13:31:56;1.70;;;0.90;;
2548;SDS011;1284;53.520;10.248;2023-07-22T13:34:21;3.08;;;1.25;;
2548;SDS011;1284;53.520;10.248;2023-07-22T13:36:47;2.00;;;1.30;;
2548;SDS011;1284;53.520;10.248;2023-07-22T13:39:12;2.35;;;1.38;;
2548;SDS011;1284;53.520;10.248;2023-07-22T13:41:38;2.35;;;0.98;;
2548;SDS011;1284;53.520;10.248;2023-07-22T13:44:03;2.22;;;1.08;;
2548;SDS011;1284;53.520;10.248;2023-07-22T13:46:30;4.07;;;1.02;;
2548;SDS011;1284;53.520;10.248;2023-07-22T13:48:55;1.58;;;0.82;;
2548;SDS011;1284;53.520;10.248;2023-07-22T13:51:21;2.47;;;1.15;;
2548;SDS011;1284;53.520;10.248;2023-07-22T13:53:46;5.00;;;1.30;;
2548;SDS011;1284;53.520;10.248;2023-07-22T13:56:12;1.40;;;1.00;;
2548;SDS011;1284;53.520;10.248;2023-07-22T13:58:37;2.50;;;1.25;;
2548;SDS011;1284;53.520;10.248;2023-07-22T14:01:03;3.30;;;1.42;;
2548;SDS011;1284;53.520;10.248;2023-07-22T14:03:28;2.35;;;1.23;;
2548;SDS011;1284;53.520;10.248;2023-07-22T14:05:54;1.65;;;0.95;;
2548;SDS011;1284;53.520;10.248;2023-07-22T14:08:20;1.55;;;0.85;;
2548;SDS011;1284;53.520;10.248;2023-07-22T14:10:45;2.50;;;1.23;;
2548;SDS011;1284;53.520;10.248;2023-07-22T14:13:11;3.78;;;0.85;;
2548;SDS011;1284;53.520;10.248;2023-07-22T14:15:36;2.50;;;1.10;;
2548;SDS011;1284;53.520;10.248;2023-07-22T14:18:02;3.67;;;1.13;;
2548;SDS011;1284;53.520;10.248;2023-07-22T14:20:28;3.25;;;1.40;;
2548;SDS011;1284;53.520;10.248;2023-07-22T14:22:55;1.65;;;1.30;;
2548;SDS011;1284;53.520;10.248;2023-07-22T14:25:21;2.53;;;1.40;;
2548;SDS011;1284;53.520;10.248;2023-07-22T14:27:47;1.73;;;1.00;;
2548;SDS011;1284;53.520;10.248;2023-07-22T14:30:12;1.25;;;1.13;;
2548;SDS011;1284;53.520;10.248;2023-07-22T14:32:38;2.17;;;0.90;;
2548;SDS011;1284;53.520;10.248;2023-07-22T14:35:03;3.17;;;1.02;;
2548;SDS011;1284;53.520;10.248;2023-07-22T14:37:29;5.60;;;1.40;;
2548;SDS011;1284;53.520;10.248;2023-07-22T14:39:55;4.72;;;1.67;;
2548;SDS011;1284;53.520;10.248;2023-07-22T14:42:21;2.08;;;1.15;;
2548;SDS011;1284;53.520;10.248;2023-07-22T14:44:46;1.83;;;1.05;;
2548;SDS011;1284;53.520;10.248;2023-07-22T14:47:12;1.58;;;1.02;;
2548;SDS011;1284;53.520;10.248;2023-07-22T14:49:37;1.58;;;0.90;;
2548;SDS011;1284;53.520;10.248;2023-07-22T14:52:03;3.85;;;0.85;;
2548;SDS011;1284;53.520;10.248;2023-07-22T14:54:28;1.98;;;0.88;;
2548;SDS011;1284;53.520;10.248;2023-07-22T14:56:54;3.38;;;1.02;;
2548;SDS011;1284;53.520;10.248;2023-07-22T14:59:19;1.85;;;0.80;;
2548;SDS011;1284;53.520;10.248;2023-07-22T15:01:44;0.80;;;0.63;;
2548;SDS011;1284;53.520;10.248;2023-07-22T15:04:10;2.35;;;0.88;;
2548;SDS011;1284;53.520;10.248;2023-07-22T15:06:35;2.22;;;0.82;;
2548;SDS011;1284;53.520;10.248;2023-07-22T15:09:01;1.20;;;0.80;;
2548;SDS011;1284;53.520;10.248;2023-07-22T15:11:36;1.48;;;1.23;;
2548;SDS011;1284;53.520;10.248;2023-07-22T15:14:02;1.15;;;0.80;;
2548;SDS011;1284;53.520;10.248;2023-07-22T15:16:29;2.85;;;1.20;;